Time;durP1;ratioP1;P1;durP2;ratioP2;P2;SDS_P1;SDS_P2;PMS_P1;PMS_P2;Temp;Humidity;BMP_temperature;BMP_pressure;BME280_temperature;BME280_humidity;BME280_pressure;Samples;Min_cycle;Max_cycle;Signal;HPM_P1;HPM_P2
2023/03/24 00:00:04;;;;;;;;;;;16.80;63.80;;;;;;4985842;28;20017;-92
2023/03/24 00:02:30;;;;;;;;;;;16.70;64.00;;;;;;4993299;28;19924;-91
2023/03/24 00:04:57;;;;;;;;;;;16.70;64.20;;;;;;5010404;28;20276;-90
2023/03/24 00:07:23;;;;;;;;;;;16.70;64.30;;;;;;4998421;28;19927;-89
2023/03/24 00:09:49;;;;;;;;;;;16.60;64.40;;;;;;4994069;28;19926;-89
2023/03/24 00:12:17;;;;;;;;;;;16.60;64.70;;;;;;5010710;28;19936;-91
2023/03/24 00:14:45;;;;;;;;;;;16.70;64.70;;;;;;4999417;28;19909;-90
2023/03/24 00:17:16;;;;;;;;;;;16.60;64.80;;;;;;5010358;28;19932;-90
2023/03/24 00:19:43;;;;;;;;;;;16.60;65.00;;;;;;4974707;28;20051;-89
2023/03/24 00:22:13;;;;;;;;;;;16.60;65.00;;;;;;4973869;28;19917;-91
2023/03/24 00:24:45;;;;;;;;;;;16.70;65.00;;;;;;4981828;28;19913;-90
2023/03/24 00:27:12;;;;;;;;;;;16.70;65.10;;;;;;5010935;28;20391;-92
2023/03/24 00:29:39;;;;;;;;;;;16.60;65.20;;;;;;5009158;28;19922;-91
2023/03/24 00:32:05;;;;;;;;;;;16.60;65.30;;;;;;5010349;28;19917;-91
2023/03/24 00:34:33;;;;;;;;;;;16.60;65.40;;;;;;5011850;28;19910;-92
2023/03/24 00:37:03;;;;;;;;;;;16.60;65.50;;;;;;4994189;28;19917;-92
2023/03/24 00:39:29;;;;;;;;;;;16.60;65.50;;;;;;4993653;28;19913;-92
2023/03/24 00:41:57;;;;;;;;;;;16.60;65.60;;;;;;4992366;28;19921;-92
2023/03/24 00:44:23;;;;;;;;;;;16.60;65.70;;;;;;5008386;28;20000;-92
2023/03/24 00:46:55;;;;;;;;;;;16.60;65.80;;;;;;5010164;28;20020;-91
2023/03/24 00:49:40;;;;;;;;;;;16.60;65.80;;;;;;5010206;28;19921;-92
2023/03/24 00:52:11;;;;;;;;;;;16.70;66.00;;;;;;4978102;28;19922;-91
2023/03/24 00:54:38;;;;;;;;;;;16.60;66.10;;;;;;5010828;28;20000;-91
2023/03/24 00:57:05;;;;;;;;;;;16.60;66.10;;;;;;5011133;28;19959;-90
2023/03/24 00:59:30;;;;;;;;;;;16.70;66.20;;;;;;5009109;28;20092;-91
2023/03/24 01:01:56;;;;;;;;;;;16.60;66.20;;;;;;5008663;28;20004;-89
2023/03/24 01:04:26;;;;;;;;;;;16.70;66.10;;;;;;5010109;28;20588;-91
2023/03/24 01:06:53;;;;;;;;;;;16.70;66.10;;;;;;5010615;28;19922;-91
2023/03/24 01:09:20;;;;;;;;;;;16.80;66.00;;;;;;4992228;28;19924;-90
2023/03/24 01:11:46;;;;;;;;;;;16.70;66.10;;;;;;5009788;28;19921;-90
2023/03/24 01:14:13;;;;;;;;;;;16.70;66.10;;;;;;5009561;28;20241;-91
2023/03/24 01:16:39;;;;;;;;;;;16.70;66.30;;;;;;4992895;28;20284;-93
2023/03/24 01:19:05;;;;;;;;;;;16.70;66.10;;;;;;4993645;28;20012;-91
2023/03/24 01:21:33;;;;;;;;;;;16.70;66.10;;;;;;4993275;28;19993;-92
2023/03/24 01:24:00;;;;;;;;;;;16.70;66.30;;;;;;5010816;28;20045;-92
2023/03/24 01:26:26;;;;;;;;;;;16.80;66.20;;;;;;4993545;28;19925;-91
2023/03/24 01:28:52;;;;;;;;;;;16.80;66.30;;;;;;5009366;28;19917;-91
2023/03/24 01:31:17;;;;;;;;;;;16.80;66.20;;;;;;4990287;28;20373;-90
2023/03/24 01:33:45;;;;;;;;;;;16.80;66.10;;;;;;4991896;28;20281;-91
2023/03/24 01:36:10;;;;;;;;;;;16.80;66.10;;;;;;4991704;28;20030;-91
2023/03/24 01:38:36;;;;;;;;;;;16.80;66.10;;;;;;4990890;28;19953;-91
2023/03/24 01:41:03;;;;;;;;;;;16.80;66.00;;;;;;4990049;28;20419;-90
2023/03/24 01:43:32;;;;;;;;;;;16.80;66.00;;;;;;5006383;28;19921;-90
2023/03/24 01:45:58;;;;;;;;;;;16.80;66.10;;;;;;5008749;28;19963;-89
2023/03/24 01:48:40;;;;;;;;;;;16.80;66.20;;;;;;4989392;28;20361;-89
2023/03/24 01:51:11;;;;;;;;;;;16.80;66.40;;;;;;5007196;28;19913;-89
2023/03/24 01:53:39;;;;;;;;;;;16.90;66.30;;;;;;4984994;28;19917;-91
2023/03/24 01:56:05;;;;;;;;;;;16.90;66.20;;;;;;4989950;28;19914;-89
2023/03/24 01:58:32;;;;;;;;;;;17.00;66.10;;;;;;4990636;28;19948;-93
2023/03/24 02:00:57;;;;;;;;;;;17.00;66.20;;;;;;4989986;28;19917;-90
2023/03/24 02:03:24;;;;;;;;;;;17.00;66.30;;;;;;4989296;28;19941;-90
2023/03/24 02:05:52;;;;;;;;;;;17.00;66.10;;;;;;5006844;28;19975;-90
2023/03/24 02:08:23;;;;;;;;;;;17.00;66.20;;;;;;5006546;28;19927;-91
2023/03/24 02:10:49;;;;;;;;;;;17.00;66.20;;;;;;5007575;28;19949;-91
2023/03/24 02:13:15;;;;;;;;;;;17.00;66.20;;;;;;4998052;28;19975;-90
2023/03/24 02:16:04;;;;;;;;;;;17.00;66.30;;;;;;4990107;28;19918;-90
2023/03/24 02:18:43;;;;;;;;;;;16.90;66.50;;;;;;4954405;28;19918;-92
2023/03/24 02:21:23;;;;;;;;;;;16.90;66.50;;;;;;4989700;28;19917;-92
2023/03/24 02:23:53;;;;;;;;;;;17.00;66.40;;;;;;4991055;28;19914;-92
2023/03/24 02:26:18;;;;;;;;;;;17.00;66.50;;;;;;4991972;28;20293;-91
2023/03/24 02:28:55;;;;;;;;;;;17.00;66.50;;;;;;4994016;28;19925;-91
2023/03/24 02:31:34;;;;;;;;;;;17.00;66.50;;;;;;5009878;28;20361;-92
2023/03/24 02:34:18;;;;;;;;;;;17.10;66.40;;;;;;4993560;28;19953;-90
2023/03/24 02:37:03;;;;;;;;;;;17.10;66.50;;;;;;5012735;28;19964;-92
2023/03/24 02:39:28;;;;;;;;;;;17.10;66.50;;;;;;4992170;28;19918;-92
2023/03/24 02:41:57;;;;;;;;;;;17.10;66.60;;;;;;4975262;28;19964;-91
2023/03/24 02:44:28;;;;;;;;;;;17.00;66.70;;;;;;4993218;28;19949;-90
2023/03/24 02:47:02;;;;;;;;;;;17.10;66.70;;;;;;5006395;28;19968;-92
2023/03/24 02:49:36;;;;;;;;;;;17.10;66.60;;;;;;4994969;28;19922;-90
2023/03/24 02:52:21;;;;;;;;;;;17.00;66.60;;;;;;4994779;28;19991;-91
2023/03/24 02:54:51;;;;;;;;;;;17.00;66.80;;;;;;5013145;28;19915;-91
2023/03/24 02:57:43;;;;;;;;;;;17.00;66.70;;;;;;4994774;28;20016;-90
2023/03/24 03:00:14;;;;;;;;;;;17.00;67.10;;;;;;4965165;28;19917;-91
2023/03/24 03:02:42;;;;;;;;;;;17.10;66.80;;;;;;4994997;28;19917;-89
2023/03/24 03:05:12;;;;;;;;;;;17.20;66.60;;;;;;4994570;28;19914;-91
2023/03/24 03:07:40;;;;;;;;;;;17.20;66.50;;;;;;5012455;28;20016;-90
2023/03/24 03:10:16;;;;;;;;;;;17.30;66.30;;;;;;4994171;28;20262;-91
2023/03/24 03:12:45;;;;;;;;;;;17.30;66.30;;;;;;5012744;28;19921;-92
2023/03/24 03:15:16;;;;;;;;;;;17.30;66.20;;;;;;4996827;28;19920;-92
2023/03/24 03:17:47;;;;;;;;;;;17.20;66.60;;;;;;4995480;28;19922;-91
2023/03/24 03:20:17;;;;;;;;;;;17.30;66.40;;;;;;5012437;28;20562;-92
2023/03/24 03:22:52;;;;;;;;;;;17.30;66.50;;;;;;4994531;28;19917;-90
2023/03/24 03:25:21;;;;;;;;;;;17.30;66.30;;;;;;5011660;28;20004;-90
2023/03/24 03:27:47;;;;;;;;;;;17.30;66.40;;;;;;4994477;28;20011;-91
2023/03/24 03:30:22;;;;;;;;;;;17.30;66.50;;;;;;4974559;28;19921;-91
2023/03/24 03:32:53;;;;;;;;;;;17.30;66.10;;;;;;4992472;28;20391;-91
2023/03/24 03:35:21;;;;;;;;;;;17.30;66.00;;;;;;4974378;28;19914;-91
2023/03/24 03:37:50;;;;;;;;;;;17.30;66.00;;;;;;4991813;28;19953;-90
2023/03/24 03:40:28;;;;;;;;;;;17.20;66.20;;;;;;4992998;28;20297;-92
2023/03/24 03:42:53;;;;;;;;;;;17.20;66.30;;;;;;4994028;28;20001;-91
2023/03/24 03:45:19;;;;;;;;;;;17.10;66.50;;;;;;4974805;28;20009;-92
2023/03/24 03:47:45;;;;;;;;;;;17.20;66.40;;;;;;4974739;28;19918;-92
2023/03/24 03:50:11;;;;;;;;;;;17.30;66.40;;;;;;4974929;28;20270;-91
2023/03/24 03:52:37;;;;;;;;;;;17.20;66.60;;;;;;4982119;28;19979;-89
2023/03/24 03:55:04;;;;;;;;;;;17.20;66.60;;;;;;5010268;28;19917;-92
2023/03/24 03:57:30;;;;;;;;;;;17.20;66.70;;;;;;5011325;28;20252;-92
2023/03/24 03:59:57;;;;;;;;;;;17.30;66.70;;;;;;5010125;28;20064;-90
2023/03/24 04:02:29;;;;;;;;;;;17.20;66.80;;;;;;4991701;28;19952;-91
2023/03/24 04:05:09;;;;;;;;;;;17.30;66.70;;;;;;5010866;28;19914;-90
2023/03/24 04:07:38;;;;;;;;;;;17.40;66.50;;;;;;4988095;28;19918;-91
2023/03/24 04:10:12;;;;;;;;;;;17.40;66.60;;;;;;4991672;28;19921;-90
2023/03/24 04:12:38;;;;;;;;;;;17.40;66.70;;;;;;4973621;28;19945;-91
2023/03/24 04:15:17;;;;;;;;;;;17.30;66.90;;;;;;4991607;28;19910;-90
2023/03/24 04:17:49;;;;;;;;;;;17.40;66.80;;;;;;4991660;28;19925;-89
2023/03/24 04:20:27;;;;;;;;;;;17.50;66.80;;;;;;5000707;28;19949;-91
2023/03/24 04:22:53;;;;;;;;;;;17.50;67.00;;;;;;5010900;28;20376;-89
2023/03/24 04:25:21;;;;;;;;;;;17.70;66.80;;;;;;4992932;28;19921;-90
2023/03/24 04:27:59;;;;;;;;;;;17.80;66.50;;;;;;4993303;28;19956;-91
2023/03/24 04:30:41;;;;;;;;;;;17.70;66.80;;;;;;5011103;28;19924;-90
2023/03/24 04:33:10;;;;;;;;;;;17.90;66.50;;;;;;4993369;28;19968;-91
2023/03/24 04:36:05;;;;;;;;;;;18.00;66.30;;;;;;4992902;28;19916;-91
2023/03/24 04:38:34;;;;;;;;;;;18.10;66.10;;;;;;4978675;28;20408;-91
2023/03/24 04:41:00;;;;;;;;;;;18.20;65.90;;;;;;4992658;28;19909;-90
2023/03/24 04:43:27;;;;;;;;;;;18.20;66.00;;;;;;5010436;28;19916;-89
2023/03/24 04:45:56;;;;;;;;;;;18.10;65.80;;;;;;4992699;28;19917;-90
2023/03/24 04:48:22;;;;;;;;;;;18.20;65.50;;;;;;4991813;28;19917;-90
2023/03/24 04:50:59;;;;;;;;;;;18.10;65.60;;;;;;4992210;28;20365;-90
2023/03/24 04:53:25;;;;;;;;;;;18.00;65.80;;;;;;4992348;28;19918;-91
2023/03/24 04:56:09;;;;;;;;;;;17.90;66.10;;;;;;4992693;28;19909;-91
2023/03/24 04:58:36;;;;;;;;;;;18.00;66.20;;;;;;4992467;28;20432;-90
2023/03/24 05:01:04;;;;;;;;;;;17.90;66.20;;;;;;4991922;28;19909;-90
2023/03/24 05:03:30;;;;;;;;;;;17.90;66.40;;;;;;4976123;28;20012;-89
2023/03/24 05:05:58;;;;;;;;;;;17.90;66.30;;;;;;4992215;28;20032;-90
2023/03/24 05:08:23;;;;;;;;;;;18.00;66.10;;;;;;5009864;28;20047;-92
2023/03/24 05:10:49;;;;;;;;;;;17.90;66.20;;;;;;5010380;28;20004;-92
2023/03/24 05:13:15;;;;;;;;;;;18.00;66.10;;;;;;5010261;28;19940;-90
2023/03/24 05:15:41;;;;;;;;;;;18.00;66.10;;;;;;4992187;28;20000;-90
2023/03/24 05:18:07;;;;;;;;;;;18.00;66.00;;;;;;4992351;28;20432;-89
2023/03/24 05:20:32;;;;;;;;;;;17.90;66.40;;;;;;4992175;28;20352;-92
2023/03/24 05:22:58;;;;;;;;;;;18.00;66.40;;;;;;4991822;28;19925;-90
2023/03/24 05:25:23;;;;;;;;;;;18.00;66.40;;;;;;5009648;28;19916;-90
2023/03/24 05:27:50;;;;;;;;;;;18.00;66.10;;;;;;4992564;28;19924;-89
2023/03/24 05:30:16;;;;;;;;;;;18.10;66.10;;;;;;4992567;28;19963;-90
2023/03/24 05:32:42;;;;;;;;;;;18.10;66.10;;;;;;4991788;28;19976;-91
2023/03/24 05:35:07;;;;;;;;;;;18.20;66.20;;;;;;4991764;28;19913;-91
2023/03/24 05:37:33;;;;;;;;;;;18.20;66.20;;;;;;4992680;28;20270;-90
2023/03/24 05:39:59;;;;;;;;;;;18.30;65.90;;;;;;5009874;28;19909;-91
2023/03/24 05:42:25;;;;;;;;;;;18.30;65.90;;;;;;5009618;28;20000;-90
2023/03/24 05:44:50;;;;;;;;;;;18.30;65.90;;;;;;5009599;28;19909;-89
2023/03/24 05:47:19;;;;;;;;;;;18.30;65.80;;;;;;4992078;28;20277;-88
2023/03/24 05:49:44;;;;;;;;;;;18.30;65.60;;;;;;5009486;28;19968;-91
2023/03/24 05:52:11;;;;;;;;;;;18.30;65.60;;;;;;4991730;28;19917;-91
2023/03/24 05:54:38;;;;;;;;;;;18.30;65.70;;;;;;4991915;28;19909;-90
2023/03/24 05:57:06;;;;;;;;;;;18.20;65.80;;;;;;5009504;28;19922;-91
2023/03/24 05:59:32;;;;;;;;;;;18.30;65.80;;;;;;5009785;28;19920;-92
2023/03/24 06:01:58;;;;;;;;;;;18.30;65.80;;;;;;4994688;28;19922;-90
2023/03/24 06:04:24;;;;;;;;;;;18.40;65.60;;;;;;4990041;28;20489;-89
2023/03/24 06:06:49;;;;;;;;;;;18.30;65.30;;;;;;5009679;28;20245;-89
2023/03/24 06:09:15;;;;;;;;;;;18.30;65.50;;;;;;5010955;28;19992;-90
2023/03/24 06:11:41;;;;;;;;;;;18.20;65.50;;;;;;5011242;28;20250;-90
2023/03/24 06:14:07;;;;;;;;;;;18.30;65.50;;;;;;4990652;28;19921;-89
2023/03/24 06:16:37;;;;;;;;;;;18.20;65.40;;;;;;5011181;28;19936;-89
2023/03/24 06:19:03;;;;;;;;;;;18.20;65.20;;;;;;5010036;28;19913;-87
2023/03/24 06:21:31;;;;;;;;;;;18.20;65.10;;;;;;5009036;28;19928;-90
2023/03/24 06:23:57;;;;;;;;;;;18.20;65.10;;;;;;5009104;28;20345;-90
2023/03/24 06:26:23;;;;;;;;;;;18.20;65.30;;;;;;4991111;28;19921;-91
2023/03/24 06:28:50;;;;;;;;;;;18.20;65.40;;;;;;4990114;28;20020;-90
2023/03/24 06:31:19;;;;;;;;;;;18.20;65.30;;;;;;5002617;28;19914;-89
2023/03/24 06:33:45;;;;;;;;;;;18.20;65.40;;;;;;4986811;28;19913;-90
2023/03/24 06:36:11;;;;;;;;;;;18.30;65.50;;;;;;5006590;28;19920;-87
2023/03/24 06:38:37;;;;;;;;;;;18.30;65.50;;;;;;5004697;28;19914;-89
2023/03/24 06:41:03;;;;;;;;;;;18.30;65.40;;;;;;5004382;28;19918;-92
2023/03/24 06:43:29;;;;;;;;;;;18.30;65.00;;;;;;5008461;28;19924;-89
2023/03/24 06:45:57;;;;;;;;;;;18.20;64.60;;;;;;4990378;28;20373;-89
2023/03/24 06:48:23;;;;;;;;;;;18.10;64.30;;;;;;4989921;28;20587;-90
2023/03/24 06:50:50;;;;;;;;;;;18.00;63.70;;;;;;4991010;28;20004;-89
2023/03/24 06:53:16;;;;;;;;;;;17.90;63.60;;;;;;5007674;28;19921;-91
2023/03/24 06:55:44;;;;;;;;;;;17.80;63.90;;;;;;4991352;28;19937;-91
2023/03/24 06:58:10;;;;;;;;;;;17.80;63.90;;;;;;4988682;28;19924;-89
2023/03/24 07:00:36;;;;;;;;;;;17.90;64.60;;;;;;5007258;28;19935;-87
2023/03/24 07:03:02;;;;;;;;;;;18.00;65.00;;;;;;5006159;28;19918;-89
2023/03/24 07:05:28;;;;;;;;;;;18.20;65.50;;;;;;4990886;28;19931;-90
2023/03/24 07:07:53;;;;;;;;;;;18.20;64.80;;;;;;5009697;28;19960;-90
2023/03/24 07:10:20;;;;;;;;;;;18.20;64.10;;;;;;4988768;28;19922;-91
2023/03/24 07:12:47;;;;;;;;;;;18.10;64.00;;;;;;4987176;28;19965;-91
2023/03/24 07:15:12;;;;;;;;;;;18.10;63.50;;;;;;4984721;28;19925;-93
2023/03/24 07:17:48;;;;;;;;;;;18.20;65.20;;;;;;4989890;28;19925;-88
2023/03/24 07:20:16;;;;;;;;;;;18.40;65.70;;;;;;4989486;28;19926;-88
2023/03/24 07:22:42;;;;;;;;;;;18.60;65.20;;;;;;5006505;28;19925;-91
2023/03/24 07:25:07;;;;;;;;;;;18.50;64.20;;;;;;4989373;28;20345;-91
2023/03/24 07:27:33;;;;;;;;;;;18.50;63.50;;;;;;5006407;28;19913;-91
2023/03/24 07:29:59;;;;;;;;;;;18.50;63.80;;;;;;5008430;28;20297;-88
2023/03/24 07:32:27;;;;;;;;;;;18.60;64.60;;;;;;5009682;28;20133;-88
2023/03/24 07:34:54;;;;;;;;;;;18.70;64.10;;;;;;4989499;28;19917;-88
2023/03/24 07:37:29;;;;;;;;;;;19.00;66.40;;;;;;4990239;28;19925;-91
2023/03/24 07:39:55;;;;;;;;;;;19.50;68.50;;;;;;4989322;28;20800;-86
2023/03/24 07:42:21;;;;;;;;;;;20.20;68.30;;;;;;4989621;28;19968;-87
2023/03/24 07:44:46;;;;;;;;;;;20.90;68.30;;;;;;4988943;28;19971;-87
2023/03/24 07:47:12;;;;;;;;;;;21.70;68.20;;;;;;5007269;28;20048;-91
2023/03/24 07:49:38;;;;;;;;;;;22.30;66.60;;;;;;5006450;28;19929;-89
2023/03/24 07:52:06;;;;;;;;;;;22.70;64.00;;;;;;5003550;28;19921;-91
2023/03/24 07:54:33;;;;;;;;;;;22.80;63.70;;;;;;5004118;28;19928;-90
2023/03/24 07:57:00;;;;;;;;;;;22.90;62.90;;;;;;4982614;28;19914;-89
2023/03/24 07:59:28;;;;;;;;;;;22.80;61.80;;;;;;5004326;28;19925;-92
2023/03/24 08:01:54;;;;;;;;;;;22.70;61.30;;;;;;4997683;28;19957;-88
2023/03/24 08:04:22;;;;;;;;;;;22.70;61.10;;;;;;5008198;28;19920;-93
2023/03/24 08:06:48;;;;;;;;;;;22.80;62.90;;;;;;4988236;28;19975;-94
2023/03/24 08:09:15;;;;;;;;;;;23.20;62.20;;;;;;4987787;28;19925;-91
2023/03/24 08:11:40;;;;;;;;;;;23.30;60.40;;;;;;5006009;28;20446;-89
2023/03/24 08:14:06;;;;;;;;;;;23.50;62.00;;;;;;4989281;28;20000;-88
2023/03/24 08:16:33;;;;;;;;;;;23.80;62.60;;;;;;5006643;28;19940;-93
2023/03/24 08:18:59;;;;;;;;;;;24.00;61.90;;;;;;5008392;28;20424;-90
2023/03/24 08:21:25;;;;;;;;;;;24.10;61.70;;;;;;5003874;28;20437;-89
2023/03/24 08:23:51;;;;;;;;;;;24.30;61.20;;;;;;5004540;28;19925;-90
2023/03/24 08:26:18;;;;;;;;;;;24.50;59.90;;;;;;5011033;28;20285;-90
2023/03/24 08:28:46;;;;;;;;;;;24.70;60.50;;;;;;5006428;28;20014;-93
2023/03/24 08:31:13;;;;;;;;;;;25.10;60.80;;;;;;5010063;28;20272;-88
2023/03/24 08:33:39;;;;;;;;;;;25.40;60.70;;;;;;5008723;28;19956;-91
2023/03/24 08:36:05;;;;;;;;;;;25.70;60.20;;;;;;4999953;28;19914;-90
2023/03/24 08:38:31;;;;;;;;;;;26.00;60.70;;;;;;4999043;28;19935;-90
2023/03/24 08:41:01;;;;;;;;;;;26.20;57.20;;;;;;4988956;28;19917;-90
2023/03/24 08:43:28;;;;;;;;;;;26.40;57.10;;;;;;5006171;28;19968;-90
2023/03/24 08:45:57;;;;;;;;;;;26.80;55.80;;;;;;5008129;28;20019;-87
2023/03/24 08:48:23;;;;;;;;;;;26.70;54.10;;;;;;5004090;28;20325;-90
2023/03/24 08:50:49;;;;;;;;;;;26.50;54.50;;;;;;5006166;28;20357;-93
2023/03/24 08:53:14;;;;;;;;;;;26.30;52.40;;;;;;5004760;28;19932;-87
2023/03/24 08:55:42;;;;;;;;;;;26.00;50.30;;;;;;5005211;28;19921;-87
2023/03/24 08:58:15;;;;;;;;;;;26.00;50.80;;;;;;4986933;28;19924;-93
2023/03/24 09:00:40;;;;;;;;;;;26.20;51.80;;;;;;4988487;28;20308;-90
2023/03/24 09:03:06;;;;;;;;;;;26.50;52.60;;;;;;4987739;28;19964;-89
2023/03/24 09:05:32;;;;;;;;;;;27.00;52.90;;;;;;4988793;28;19913;-90
2023/03/24 09:07:59;;;;;;;;;;;27.50;53.40;;;;;;5005598;28;19917;-89
2023/03/24 09:10:25;;;;;;;;;;;27.70;47.70;;;;;;4986970;28;20079;-89
2023/03/24 09:12:51;;;;;;;;;;;27.80;46.90;;;;;;5007416;28;20332;-93
2023/03/24 09:15:17;;;;;;;;;;;27.90;46.90;;;;;;5010332;28;19921;-93
2023/03/24 09:17:43;;;;;;;;;;;27.70;42.80;;;;;;5010636;28;19914;-90
2023/03/24 09:20:10;;;;;;;;;;;27.30;41.80;;;;;;5005013;28;19924;-90
2023/03/24 09:22:37;;;;;;;;;;;27.00;42.70;;;;;;4985844;28;19913;-92
2023/03/24 09:25:02;;;;;;;;;;;26.70;42.60;;;;;;4993327;28;19979;-90
2023/03/24 09:27:28;;;;;;;;;;;26.50;43.20;;;;;;5006604;28;19964;-91
2023/03/24 09:29:56;;;;;;;;;;;26.30;42.10;;;;;;5005714;28;20385;-89
2023/03/24 09:32:24;;;;;;;;;;;26.30;43.30;;;;;;5006045;28;20424;-93
2023/03/24 09:34:50;;;;;;;;;;;26.60;43.60;;;;;;5008841;28;20118;-90
2023/03/24 09:37:25;;;;;;;;;;;26.70;44.00;;;;;;5005805;28;19917;-91
2023/03/24 09:39:54;;;;;;;;;;;26.90;42.50;;;;;;4987492;28;20375;-94
2023/03/24 09:42:25;;;;;;;;;;;27.30;42.60;;;;;;4990221;28;20389;-91
2023/03/24 09:44:56;;;;;;;;;;;27.40;41.10;;;;;;5001204;28;19945;-90
2023/03/24 09:47:24;;;;;;;;;;;27.50;41.10;;;;;;5002952;28;19940;-90
2023/03/24 09:49:51;;;;;;;;;;;27.40;40.50;;;;;;4999056;28;20373;-88
2023/03/24 09:52:21;;;;;;;;;;;27.50;40.20;;;;;;4989655;28;19922;-91
2023/03/24 09:54:51;;;;;;;;;;;27.50;38.30;;;;;;5009555;28;19921;-89
2023/03/24 09:57:36;;;;;;;;;;;27.50;39.00;;;;;;4986805;28;19922;-87
2023/03/24 10:00:14;;;;;;;;;;;27.40;38.30;;;;;;5003105;28;20336;-88
2023/03/24 10:02:49;;;;;;;;;;;27.50;38.40;;;;;;5004699;28;19917;-90
2023/03/24 10:05:21;;;;;;;;;;;27.50;38.90;;;;;;4986945;28;19918;-88
2023/03/24 10:07:59;;;;;;;;;;;27.60;36.50;;;;;;4987957;28;19917;-90
2023/03/24 10:10:46;;;;;;;;;;;;;;;;;;;;;
2023/03/24 10:13:22;;;;;;;;;;;27.30;36.90;;;;;;5016457;28;19980;-92
2023/03/24 10:15:51;;;;;;;;;;;27.50;36.70;;;;;;5012939;28;19946;-92
2023/03/24 10:18:49;;;;;;;;;;;27.70;35.90;;;;;;5008123;28;19981;-92
2023/03/24 10:21:23;;;;;;;;;;;27.80;35.90;;;;;;4934110;28;20421;-92
2023/03/24 10:24:02;;;;;;;;;;;27.80;34.80;;;;;;5002178;28;19924;-87
2023/03/24 10:26:43;;;;;;;;;;;27.70;34.80;;;;;;4989934;28;19925;-91
2023/03/24 10:29:28;;;;;;;;;;;27.80;35.00;;;;;;4997516;28;20377;-90
2023/03/24 10:31:59;;;;;;;;;;;27.90;35.70;;;;;;5001872;28;19920;-90
2023/03/24 10:34:41;;;;;;;;;;;27.80;34.80;;;;;;4995493;28;19985;-93
2023/03/24 10:37:25;;;;;;;;;;;27.60;35.40;;;;;;5015829;28;19914;-90
2023/03/24 10:39:51;;;;;;;;;;;27.30;34.70;;;;;;5006200;28;19964;-89
2023/03/24 10:42:20;;;;;;;;;;;27.00;34.80;;;;;;4987393;28;20352;-87
2023/03/24 10:44:47;;;;;;;;;;;26.70;34.80;;;;;;4985291;28;20424;-88
2023/03/24 10:47:16;;;;;;;;;;;26.50;35.10;;;;;;4997757;28;19921;-92
2023/03/24 10:50:13;;;;;;;;;;;26.20;35.60;;;;;;5005836;28;19925;-91
2023/03/24 10:52:40;;;;;;;;;;;26.00;35.50;;;;;;4932437;28;20076;-90
2023/03/24 10:55:13;;;;;;;;;;;25.80;35.60;;;;;;4994548;28;19921;-89
2023/03/24 10:57:50;;;;;;;;;;;26.10;36.50;;;;;;5004761;28;20357;-88
2023/03/24 11:00:36;;;;;;;;;;;26.50;35.80;;;;;;4994745;28;20254;-92
2023/03/24 11:03:07;;;;;;;;;;;26.90;35.10;;;;;;4992231;28;20653;-91
2023/03/24 11:05:37;;;;;;;;;;;27.30;35.20;;;;;;4991387;28;19914;-91
2023/03/24 11:08:11;;;;;;;;;;;27.60;32.90;;;;;;4994327;28;19928;-91
2023/03/24 11:10:37;;;;;;;;;;;27.80;32.50;;;;;;5004138;28;19983;-88
2023/03/24 11:13:35;;;;;;;;;;;28.30;33.20;;;;;;4991233;28;19921;-90
2023/03/24 11:16:22;;;;;;;;;;;28.90;32.50;;;;;;5009167;28;19914;-91
2023/03/24 11:18:55;;;;;;;;;;;29.40;32.00;;;;;;4991299;28;19922;-88
2023/03/24 11:21:21;;;;;;;;;;;29.90;31.40;;;;;;5008002;28;19936;-88
2023/03/24 11:23:47;;;;;;;;;;;30.20;30.60;;;;;;5010832;28;20373;-90
2023/03/24 11:26:25;;;;;;;;;;;30.50;30.50;;;;;;5009870;28;19937;-89
2023/03/24 11:29:01;;;;;;;;;;;30.80;30.30;;;;;;4999898;28;19917;-91
2023/03/24 11:31:34;;;;;;;;;;;30.80;29.40;;;;;;5007674;28;19917;-92
2023/03/24 11:34:15;;;;;;;;;;;30.60;29.30;;;;;;5026268;28;19918;-89
2023/03/24 11:36:41;;;;;;;;;;;30.20;29.20;;;;;;5007756;28;19920;-90
2023/03/24 11:39:21;;;;;;;;;;;29.70;28.80;;;;;;5014196;28;19925;-91
2023/03/24 11:41:58;;;;;;;;;;;29.20;28.70;;;;;;4993847;28;20356;-93
2023/03/24 11:44:27;;;;;;;;;;;28.60;29.20;;;;;;5011777;28;19925;-90
2023/03/24 11:47:05;;;;;;;;;;;28.20;30.20;;;;;;4993237;28;19914;-89
2023/03/24 11:49:36;;;;;;;;;;;27.80;30.50;;;;;;5001003;28;19925;-88
2023/03/24 11:52:03;;;;;;;;;;;27.50;30.60;;;;;;4994752;28;19913;-88
2023/03/24 11:54:32;;;;;;;;;;;27.20;30.40;;;;;;4991668;28;19926;-89
2023/03/24 11:56:59;;;;;;;;;;;27.00;30.60;;;;;;4992955;28;19971;-92
2023/03/24 11:59:44;;;;;;;;;;;26.80;31.10;;;;;;5010641;28;19980;-88
2023/03/24 12:02:21;;;;;;;;;;;26.80;31.00;;;;;;4992953;28;19913;-88
2023/03/24 12:04:56;;;;;;;;;;;26.90;30.80;;;;;;4990558;28;19949;-93
2023/03/24 12:07:21;;;;;;;;;;;27.20;31.10;;;;;;4985806;28;19933;-91
2023/03/24 12:09:56;;;;;;;;;;;27.70;30.30;;;;;;4994397;28;19921;-89
2023/03/24 12:12:39;;;;;;;;;;;28.50;29.90;;;;;;5012448;28;20303;-89
2023/03/24 12:15:07;;;;;;;;;;;29.40;29.20;;;;;;4982142;28;20432;-90
2023/03/24 12:17:39;;;;;;;;;;;30.10;27.40;;;;;;4975774;28;19916;-89
2023/03/24 12:20:08;;;;;;;;;;;30.30;26.10;;;;;;4974473;28;20543;-89
2023/03/24 12:22:39;;;;;;;;;;;30.40;26.10;;;;;;5004057;28;19929;-91
2023/03/24 12:25:27;;;;;;;;;;;30.60;27.30;;;;;;5011446;28;20424;-89
2023/03/24 12:28:05;;;;;;;;;;;30.70;34.30;;;;;;4986560;28;19948;-93
2023/03/24 12:30:42;;;;;;;;;;;30.30;36.50;;;;;;4992429;28;19926;-89
2023/03/24 12:33:20;;;;;;;;;;;30.40;37.60;;;;;;4993044;28;19965;-88
2023/03/24 12:35:46;;;;;;;;;;;30.70;37.50;;;;;;5004707;28;20365;-89
2023/03/24 12:38:18;;;;;;;;;;;30.50;37.40;;;;;;4991724;28;19913;-90
2023/03/24 12:40:53;;;;;;;;;;;30.10;37.20;;;;;;5010038;28;19917;-88
2023/03/24 12:43:36;;;;;;;;;;;29.60;36.30;;;;;;4990808;28;19928;-93
2023/03/24 12:46:09;;;;;;;;;;;29.00;35.70;;;;;;5008449;28;19914;-89
2023/03/24 12:48:44;;;;;;;;;;;28.70;34.40;;;;;;4992176;28;19924;-87
2023/03/24 12:51:09;;;;;;;;;;;28.70;32.90;;;;;;4990002;28;19972;-88
2023/03/24 12:53:55;;;;;;;;;;;28.40;32.60;;;;;;4992899;28;19965;-87
2023/03/24 12:56:34;;;;;;;;;;;28.10;32.00;;;;;;4946800;28;19923;-92
2023/03/24 12:59:14;;;;;;;;;;;27.80;32.10;;;;;;4993358;28;19956;-87
2023/03/24 13:01:45;;;;;;;;;;;28.00;32.60;;;;;;5010817;28;19914;-91
2023/03/24 13:04:14;;;;;;;;;;;27.70;32.40;;;;;;4988010;28;19960;-88
2023/03/24 13:06:55;;;;;;;;;;;27.30;32.20;;;;;;4990188;28;19961;-89
2023/03/24 13:09:30;;;;;;;;;;;27.10;31.40;;;;;;5000794;28;19929;-87
2023/03/24 13:12:00;;;;;;;;;;;27.00;30.90;;;;;;5009228;28;19921;-87
2023/03/24 13:14:30;;;;;;;;;;;26.70;31.00;;;;;;4990177;28;19964;-90
2023/03/24 13:17:00;;;;;;;;;;;26.50;30.90;;;;;;5009289;28;19917;-88
2023/03/24 13:19:26;;;;;;;;;;;26.20;31.80;;;;;;4992348;28;19956;-88
2023/03/24 13:21:54;;;;;;;;;;;26.20;32.00;;;;;;4991045;28;19956;-90
2023/03/24 13:24:33;;;;;;;;;;;;;;;;;;;;;
2023/03/24 13:27:12;;;;;;;;;;;27.10;31.00;;;;;;5000128;28;19924;-89
2023/03/24 13:29:57;;;;;;;;;;;27.20;30.40;;;;;;4989990;28;20009;-90
2023/03/24 13:32:37;;;;;;;;;;;27.20;31.00;;;;;;5000658;28;20427;-92
2023/03/24 13:35:15;;;;;;;;;;;27.00;29.10;;;;;;4990122;28;19922;-93
2023/03/24 13:37:45;;;;;;;;;;;26.90;29.60;;;;;;5006430;28;19914;-91
2023/03/24 13:40:27;;;;;;;;;;;26.80;29.90;;;;;;5004395;28;20337;-91
2023/03/24 13:42:58;;;;;;;;;;;26.70;29.60;;;;;;5006968;28;19927;-91
2023/03/24 13:45:40;;;;;;;;;;;26.50;29.80;;;;;;4991507;28;20258;-91
2023/03/24 13:48:06;;;;;;;;;;;26.40;29.70;;;;;;4996527;28;19914;-90
2023/03/24 13:50:52;;;;;;;;;;;26.20;30.30;;;;;;4992017;28;19921;-89
2023/03/24 13:56:29;;;;;;;;;;;26.00;30.70;;;;;;5010452;28;19913;-92
2023/03/24 13:58:58;;;;;;;;;;;25.90;30.10;;;;;;5005097;28;19967;-91
2023/03/24 14:01:37;;;;;;;;;;;25.80;30.10;;;;;;4992271;28;19913;-90
2023/03/24 14:04:18;;;;;;;;;;;25.60;29.80;;;;;;5010166;28;20277;-90
2023/03/24 14:06:59;;;;;;;;;;;25.30;30.10;;;;;;5011583;28;19917;-94
2023/03/24 14:09:28;;;;;;;;;;;25.30;30.70;;;;;;4994989;28;19922;-89
2023/03/24 14:11:53;;;;;;;;;;;25.30;30.70;;;;;;5005008;28;21383;-89
2023/03/24 14:14:21;;;;;;;;;;;25.20;30.50;;;;;;5011896;28;19913;-90
2023/03/24 14:17:08;;;;;;;;;;;25.10;30.60;;;;;;5008959;28;19917;-89
2023/03/24 14:19:39;;;;;;;;;;;24.90;30.40;;;;;;4999630;28;19936;-91
2023/03/24 14:22:23;;;;;;;;;;;24.90;30.90;;;;;;5013867;28;19917;-93
2023/03/24 14:25:02;;;;;;;;;;;24.90;31.10;;;;;;4995237;28;20331;-89
2023/03/24 14:27:31;;;;;;;;;;;25.00;31.10;;;;;;4993159;28;19914;-90
2023/03/24 14:30:01;;;;;;;;;;;25.00;30.80;;;;;;5014542;28;19932;-92
2023/03/24 14:32:26;;;;;;;;;;;24.90;30.50;;;;;;5012854;28;19917;-90
2023/03/24 14:34:56;;;;;;;;;;;24.80;30.50;;;;;;4979609;28;20557;-88
2023/03/24 14:37:23;;;;;;;;;;;24.70;30.70;;;;;;5013578;28;20622;-91
2023/03/24 14:39:50;;;;;;;;;;;24.60;30.70;;;;;;5015511;28;19925;-91